Time;durP1;ratioP1;P1;durP2;ratioP2;P2;SDS_P1;SDS_P2;PMS_P1;PMS_P2;Temp;Humidity;BMP_temperature;BMP_pressure;BME280_temperature;BME280_humidity;BME280_pressure;Samples;Min_cycle;Max_cycle;Signal;HPM_P1;HPM_P2
2022/03/18 00:01:12;;;;;;;;;;;;;;;11.11;100.00;101057.56;5075697;28;19955;-76
2022/03/18 00:03:39;;;;;;;;;;;;;;;11.45;100.00;101062.03;5074376;28;19929;-76
2022/03/18 00:06:06;;;;;;;;;;;;;;;11.35;100.00;101071.88;5075584;28;20303;-76
2022/03/18 00:08:33;;;;;;;;;;;;;;;11.02;100.00;101080.25;5075501;28;19925;-76
2022/03/18 00:11:02;;;;;;;;;;;;;;;10.94;100.00;101100.91;5057464;28;19924;-76
2022/03/18 00:13:29;;;;;;;;;;;;;;;10.93;100.00;101090.91;5073953;28;19933;-76
2022/03/18 00:15:57;;;;;;;;;;;;;;;10.81;100.00;101102.31;5075263;28;19924;-76
2022/03/18 00:18:24;;;;;;;;;;;;;;;10.87;100.00;101098.00;5074269;28;19925;-76
2022/03/18 00:20:51;;;;;;;;;;;;;;;10.88;100.00;101099.63;5075194;28;19931;-76
2022/03/18 00:23:19;;;;;;;;;;;;;;;11.12;100.00;101106.78;5075077;28;19935;-76
2022/03/18 00:25:47;;;;;;;;;;;;;;;10.77;100.00;101109.81;5073869;28;19924;-76
2022/03/18 00:28:14;;;;;;;;;;;;;;;10.69;100.00;101116.50;5075164;28;19947;-76
2022/03/18 00:30:41;;;;;;;;;;;;;;;11.06;100.00;101116.69;5067317;28;19939;-76
2022/03/18 00:33:09;;;;;;;;;;;;;;;10.80;100.00;101126.66;5095434;28;19932;-76
2022/03/18 00:35:36;;;;;;;;;;;;;;;10.87;100.00;101123.97;5095169;28;19930;-76
2022/03/18 00:38:03;;;;;;;;;;;;;;;10.96;100.00;101135.69;5094080;28;20376;-76
2022/03/18 00:40:31;;;;;;;;;;;;;;;10.93;100.00;101132.88;5095070;28;19931;-76
2022/03/18 00:43:00;;;;;;;;;;;;;;;11.28;100.00;101130.59;5094852;28;19974;-75
2022/03/18 00:45:29;;;;;;;;;;;;;;;11.60;100.00;101140.19;5093792;28;19977;-76
2022/03/18 00:53:28;;;;;;;;;;;;;;;11.81;100.00;101150.91;5094826;28;20003;-76
2022/03/18 00:55:55;;;;;;;;;;;;;;;11.87;100.00;101147.38;5094537;28;19924;-76
2022/03/18 00:58:22;;;;;;;;;;;;;;;11.87;100.00;101158.59;5094842;28;20006;-76
2022/03/18 01:00:49;;;;;;;;;;;;;;;11.16;100.00;101167.19;5093756;28;19967;-76
2022/03/18 01:03:16;;;;;;;;;;;;;;;11.57;100.00;101165.38;5093371;28;20011;-76
2022/03/18 01:05:43;;;;;;;;;;;;;;;11.74;100.00;101160.00;5093536;28;19931;-76
2022/03/18 01:08:11;;;;;;;;;;;;;;;11.59;100.00;101163.78;5093153;28;19924;-76
2022/03/18 01:10:38;;;;;;;;;;;;;;;11.65;100.00;101165.09;5094556;28;19931;-76
2022/03/18 01:13:06;;;;;;;;;;;;;;;11.72;100.00;101165.19;5093274;28;19967;-76
2022/03/18 01:15:33;;;;;;;;;;;;;;;11.69;100.00;101165.94;5093299;28;19924;-76
2022/03/18 01:18:00;;;;;;;;;;;;;;;11.26;100.00;101160.13;5093293;28;19925;-76
2022/03/18 01:20:28;;;;;;;;;;;;;;;10.62;100.00;101164.72;5094495;28;20345;-76
2022/03/18 01:22:56;;;;;;;;;;;;;;;10.16;100.00;101173.47;5093200;28;19974;-76
2022/03/18 01:25:23;;;;;;;;;;;;;;;10.18;100.00;101177.50;5094381;28;20020;-76
2022/03/18 01:27:50;;;;;;;;;;;;;;;10.37;100.00;101191.44;5094309;28;19928;-76
2022/03/18 01:30:17;;;;;;;;;;;;;;;10.58;100.00;101189.03;5087441;28;19924;-76
2022/03/18 01:32:44;;;;;;;;;;;;;;;10.58;100.00;101183.44;5072797;28;19966;-76
2022/03/18 01:35:11;;;;;;;;;;;;;;;10.68;100.00;101191.19;5074043;28;20007;-76
2022/03/18 01:37:39;;;;;;;;;;;;;;;10.65;100.00;101193.91;5074062;28;19924;-76
2022/03/18 01:40:06;;;;;;;;;;;;;;;10.59;100.00;101190.63;5056082;28;19924;-76
2022/03/18 01:42:33;;;;;;;;;;;;;;;10.57;100.00;101190.19;5072812;28;19925;-76
2022/03/18 01:45:00;;;;;;;;;;;;;;;10.53;100.00;101199.69;5072735;28;20002;-76
2022/03/18 01:47:28;;;;;;;;;;;;;;;10.53;100.00;101200.50;5056055;28;19952;-76
2022/03/18 01:49:58;;;;;;;;;;;;;;;10.47;100.00;101204.78;5073977;28;19928;-76
2022/03/18 01:52:25;;;;;;;;;;;;;;;10.41;100.00;101211.88;5073506;28;19924;-76
2022/03/18 01:54:52;;;;;;;;;;;;;;;10.36;100.00;101212.16;5072559;28;19924;-76
2022/03/18 01:57:21;;;;;;;;;;;;;;;10.24;100.00;101208.72;5073825;28;19928;-76
2022/03/18 01:59:49;;;;;;;;;;;;;;;10.04;100.00;101204.31;5072066;28;19936;-76
2022/03/18 02:02:17;;;;;;;;;;;;;;;10.01;100.00;101213.44;5073627;28;19925;-76
2022/03/18 02:04:45;;;;;;;;;;;;;;;9.70;100.00;101210.78;5072710;28;19924;-76
2022/03/18 02:07:12;;;;;;;;;;;;;;;9.59;100.00;101218.94;5073714;28;20449;-76
2022/03/18 02:09:40;;;;;;;;;;;;;;;9.55;100.00;101222.81;5072421;28;20062;-76
2022/03/18 02:12:07;;;;;;;;;;;;;;;9.44;100.00;101230.94;5072327;28;20023;-76
2022/03/18 02:15:00;;;;;;;;;;;;;;;9.19;100.00;101229.56;5055108;28;19959;-76
2022/03/18 02:17:27;;;;;;;;;;;;;;;9.07;100.00;101230.47;5073861;28;20019;-76
2022/03/18 02:19:54;;;;;;;;;;;;;;;8.68;100.00;101225.09;5072323;28;19931;-76
2022/03/18 02:22:22;;;;;;;;;;;;;;;8.58;100.00;101237.59;5073315;28;19978;-76
2022/03/18 02:24:51;;;;;;;;;;;;;;;8.55;100.00;101226.34;5073431;28;19931;-76
2022/03/18 02:27:19;;;;;;;;;;;;;;;8.50;100.00;101233.00;5073907;28;19931;-76
2022/03/18 02:29:46;;;;;;;;;;;;;;;8.49;100.00;101231.38;5075823;28;19929;-76
2022/03/18 02:32:14;;;;;;;;;;;;;;;8.42;100.00;101236.75;5092529;28;19924;-76
2022/03/18 02:34:41;;;;;;;;;;;;;;;8.31;100.00;101246.00;5093778;28;19928;-76
2022/03/18 02:37:09;;;;;;;;;;;;;;;8.14;100.00;101244.31;5092468;28;19931;-76
2022/03/18 02:39:36;;;;;;;;;;;;;;;8.09;100.00;101254.91;5093606;28;19924;-76
2022/03/18 02:42:04;;;;;;;;;;;;;;;7.96;100.00;101256.09;5093542;28;19947;-76
2022/03/18 02:44:32;;;;;;;;;;;;;;;7.97;100.00;101255.75;5093583;28;19928;-76
2022/03/18 02:46:59;;;;;;;;;;;;;;;7.76;100.00;101254.31;5075672;28;19977;-75
2022/03/18 02:49:26;;;;;;;;;;;;;;;7.43;100.00;101256.47;5093476;28;20006;-76
2022/03/18 02:51:53;;;;;;;;;;;;;;;7.38;100.00;101263.91;5093263;28;20069;-76
2022/03/18 02:54:21;;;;;;;;;;;;;;;7.08;100.00;101272.84;5093245;28;19932;-76
2022/03/18 02:56:49;;;;;;;;;;;;;;;7.36;100.00;101280.13;5092215;28;19924;-76
2022/03/18 02:59:16;;;;;;;;;;;;;;;7.40;100.00;101288.59;5091891;28;20019;-76
2022/03/18 03:01:43;;;;;;;;;;;;;;;7.36;100.00;101282.09;5092328;28;19928;-76
2022/03/18 03:04:13;;;;;;;;;;;;;;;7.27;100.00;101284.16;5075209;28;19974;-76
2022/03/18 03:09:26;;;;;;;;;;;;;;;7.04;100.00;101288.59;5093341;28;20061;-76
2022/03/18 03:11:53;;;;;;;;;;;;;;;7.08;100.00;101297.84;5094408;28;20011;-76
2022/03/18 03:14:20;;;;;;;;;;;;;;;6.91;100.00;101289.72;5095850;28;19935;-76
2022/03/18 03:16:47;;;;;;;;;;;;;;;6.97;100.00;101293.91;5096751;28;19997;-76
2022/03/18 03:19:15;;;;;;;;;;;;;;;6.78;100.00;101293.66;5095760;28;20410;-76
2022/03/18 03:21:42;;;;;;;;;;;;;;;6.94;100.00;101294.59;5129296;27;19924;-76
2022/03/18 03:24:09;;;;;;;;;;;;;;;6.93;100.00;101298.53;5095390;28;19963;-76
2022/03/18 03:26:36;;;;;;;;;;;;;;;6.91;100.00;101300.84;5096779;28;19951;-76
2022/03/18 03:29:04;;;;;;;;;;;;;;;6.59;100.00;101305.31;5096617;28;19979;-76
2022/03/18 03:31:31;;;;;;;;;;;;;;;5.98;100.00;101317.34;5077979;28;19924;-76
2022/03/18 03:33:58;;;;;;;;;;;;;;;6.03;100.00;101324.66;5075181;28;19925;-76
2022/03/18 03:36:26;;;;;;;;;;;;;;;6.11;100.00;101332.06;5076016;28;19924;-76
2022/03/18 03:38:59;;;;;;;;;;;;;;;6.19;100.00;101332.00;5076251;28;19932;-76
2022/03/18 03:41:44;;;;;;;;;;;;;;;5.74;100.00;101333.78;5074433;28;19935;-76
2022/03/18 03:44:12;;;;;;;;;;;;;;;5.64;100.00;101339.75;5075983;28;19924;-75
2022/03/18 03:46:39;;;;;;;;;;;;;;;5.87;100.00;101337.50;5076082;28;20459;-76
2022/03/18 03:49:06;;;;;;;;;;;;;;;5.89;100.00;101346.31;5058026;28;20291;-75
2022/03/18 03:51:34;;;;;;;;;;;;;;;5.23;100.00;101346.00;5075518;28;19940;-76
2022/03/18 03:54:01;;;;;;;;;;;;;;;5.28;100.00;101356.91;5074700;28;20022;-76
2022/03/18 03:56:28;;;;;;;;;;;;;;;5.61;100.00;101365.38;5076085;28;19928;-76
2022/03/18 03:58:55;;;;;;;;;;;;;;;5.77;100.00;101368.38;5075939;28;19970;-76
2022/03/18 04:01:22;;;;;;;;;;;;;;;5.83;100.00;101378.97;5075902;28;19925;-76
2022/03/18 04:03:49;;;;;;;;;;;;;;;5.68;100.00;101368.41;5075578;28;19931;-76
2022/03/18 04:06:17;;;;;;;;;;;;;;;5.76;100.00;101375.88;5074200;28;19924;-76
2022/03/18 04:08:44;;;;;;;;;;;;;;;5.70;100.00;101370.84;5075513;28;20411;-76
2022/03/18 04:11:11;;;;;;;;;;;;;;;5.80;100.00;101370.50;5074454;28;19933;-76
2022/03/18 04:13:38;;;;;;;;;;;;;;;5.86;100.00;101380.28;5074394;28;19924;-76
2022/03/18 04:16:05;;;;;;;;;;;;;;;5.77;100.00;101388.59;5075488;28;19993;-75
2022/03/18 04:18:33;;;;;;;;;;;;;;;5.15;100.00;101382.88;5074035;28;19978;-76
2022/03/18 04:21:00;;;;;;;;;;;;;;;5.15;100.00;101399.50;5073868;28;19924;-76
2022/03/18 04:23:27;;;;;;;;;;;;;;;5.47;100.00;101396.13;5074819;28;20364;-76
2022/03/18 04:25:54;;;;;;;;;;;;;;;5.36;100.00;101405.16;5075391;28;19924;-76
2022/03/18 04:28:21;;;;;;;;;;;;;;;5.19;100.00;101411.59;5075227;28;19937;-75
2022/03/18 04:30:49;;;;;;;;;;;;;;;5.24;100.00;101408.59;5085109;28;20275;-76
2022/03/18 04:33:16;;;;;;;;;;;;;;;5.31;100.00;101397.00;5095009;28;19928;-76
2022/03/18 04:35:44;;;;;;;;;;;;;;;5.13;100.00;101393.50;5094868;28;19947;-76
2022/03/18 04:38:11;;;;;;;;;;;;;;;5.21;100.00;101398.19;5095208;28;20081;-76
2022/03/18 04:40:38;;;;;;;;;;;;;;;4.52;100.00;101399.50;5095160;28;19924;-76
2022/03/18 04:43:05;;;;;;;;;;;;;;;3.98;100.00;101411.22;5095085;28;19955;-76
2022/03/18 04:45:33;;;;;;;;;;;;;;;4.43;100.00;101420.84;5094940;28;19924;-75
2022/03/18 04:48:05;;;;;;;;;;;;;;;3.65;100.00;101421.06;5093511;28;19977;-76
2022/03/18 04:50:32;;;;;;;;;;;;;;;4.39;100.00;101413.53;5094904;28;19924;-76
2022/03/18 04:52:59;;;;;;;;;;;;;;;4.56;100.00;101425.38;5093564;28;19927;-76
2022/03/18 04:55:26;;;;;;;;;;;;;;;4.60;100.00;101426.38;5093762;28;20413;-76
2022/03/18 04:57:53;;;;;;;;;;;;;;;4.33;100.00;101432.22;5094780;28;19931;-75
2022/03/18 05:00:24;;;;;;;;;;;;;;;4.28;100.00;101426.88;5093420;28;19924;-76
2022/03/18 05:02:52;;;;;;;;;;;;;;;4.39;100.00;101417.09;5094333;28;19928;-76
2022/03/18 05:05:20;;;;;;;;;;;;;;;4.72;100.00;101423.75;5094580;28;19993;-76
2022/03/18 05:07:50;;;;;;;;;;;;;;;4.71;100.00;101422.13;5094700;28;20344;-76
2022/03/18 05:10:18;;;;;;;;;;;;;;;4.83;100.00;101418.69;5094628;28;19928;-76
2022/03/18 05:12:46;;;;;;;;;;;;;;;4.41;100.00;101420.34;5127372;27;20012;-76
2022/03/18 05:15:14;;;;;;;;;;;;;;;4.65;100.00;101430.94;5094375;28;19959;-76
2022/03/18 05:17:48;;;;;;;;;;;;;;;4.76;100.00;101435.81;5092994;28;19932;-76
2022/03/18 05:20:15;;;;;;;;;;;;;;;4.79;100.00;101428.78;5094530;28;20338;-76
2022/03/18 05:22:42;;;;;;;;;;;;;;;4.59;100.00;101430.28;5093187;28;19928;-76
2022/03/18 05:25:09;;;;;;;;;;;;;;;4.34;100.00;101439.41;5059824;28;19924;-76
2022/03/18 05:27:41;;;;;;;;;;;;;;;3.92;100.00;101439.34;5094324;28;19966;-75
2022/03/18 05:30:14;;;;;;;;;;;;;;;3.66;100.00;101434.56;5087375;28;20022;-75
2022/03/18 05:32:41;;;;;;;;;;;;;;;3.63;100.00;101434.41;5072585;28;19924;-76
2022/03/18 05:35:11;;;;;;;;;;;;;;;3.57;100.00;101442.00;5073272;28;20350;-76
2022/03/18 05:37:38;;;;;;;;;;;;;;;3.18;100.00;101443.97;5073973;28;20011;-76
2022/03/18 05:40:06;;;;;;;;;;;;;;;3.84;100.00;101459.50;5073857;28;19939;-75
2022/03/18 05:42:34;;;;;;;;;;;;;;;4.17;100.00;101458.75;5072212;28;19932;-76
2022/03/18 05:45:02;;;;;;;;;;;;;;;4.31;100.00;101451.13;5074444;28;20260;-76
2022/03/18 05:47:30;;;;;;;;;;;;;;;4.36;100.00;101459.25;5073707;28;19932;-75
2022/03/18 05:50:01;;;;;;;;;;;;;;;4.48;100.00;101461.41;5083902;28;19924;-76
2022/03/18 05:52:30;;;;;;;;;;;;;;;4.39;100.00;101458.59;5093757;28;20393;-76
2022/03/18 05:55:00;;;;;;;;;;;;;;;4.58;100.00;101461.88;5091978;28;20458;-76
2022/03/18 05:57:27;;;;;;;;;;;;;;;4.16;100.00;101465.44;5094068;28;19925;-76
2022/03/18 05:59:56;;;;;;;;;;;;;;;3.87;100.00;101473.50;5092617;28;20398;-76
2022/03/18 06:02:23;;;;;;;;;;;;;;;3.32;100.00;101480.59;5080110;28;19935;-76
2022/03/18 06:04:51;;;;;;;;;;;;;;;3.89;100.00;101476.78;5072354;28;19925;-76
2022/03/18 06:07:19;;;;;;;;;;;;;;;3.82;100.00;101478.38;5072210;28;20387;-76
2022/03/18 06:12:33;;;;;;;;;;;;;;;3.93;100.00;101476.94;5074253;28;19930;-76
2022/03/18 06:15:01;;;;;;;;;;;;;;;2.95;100.00;101486.56;5078567;28;19924;-75
2022/03/18 06:17:28;;;;;;;;;;;;;;;3.06;100.00;101499.00;5093657;28;20368;-76
2022/03/18 06:19:56;;;;;;;;;;;;;;;3.54;100.00;101499.91;5093503;28;19924;-76
2022/03/18 06:22:23;;;;;;;;;;;;;;;2.85;100.00;101508.91;5093475;28;19928;-76
2022/03/18 06:24:50;;;;;;;;;;;;;;;2.54;100.00;101510.78;5093512;28;20428;-75
2022/03/18 06:27:17;;;;;;;;;;;;;;;2.82;100.00;101517.81;5086452;28;20288;-75
2022/03/18 06:29:44;;;;;;;;;;;;;;;3.17;100.00;101526.03;5073163;28;20502;-75
2022/03/18 06:32:12;;;;;;;;;;;;;;;3.56;100.00;101528.03;5072099;28;20334;-75
2022/03/18 06:34:39;;;;;;;;;;;;;;;3.80;100.00;101536.78;5072193;28;19935;-76
2022/03/18 06:37:06;;;;;;;;;;;;;;;3.84;100.00;101546.06;5073635;28;19925;-76
2022/03/18 06:39:34;;;;;;;;;;;;;;;3.92;100.00;101539.78;5073409;28;19929;-76
2022/03/18 06:42:02;;;;;;;;;;;;;;;3.23;100.00;101540.53;5073270;28;20368;-76
2022/03/18 06:44:29;;;;;;;;;;;;;;;3.32;100.00;101544.16;5071681;28;20025;-76
2022/03/18 06:46:57;;;;;;;;;;;;;;;3.56;100.00;101550.16;5076040;28;19925;-75
2022/03/18 06:49:24;;;;;;;;;;;;;;;2.55;100.00;101567.59;5075782;28;20344;-75
2022/03/18 06:51:51;;;;;;;;;;;;;;;3.18;100.00;101573.84;5058615;28;20042;-77
2022/03/18 06:54:19;;;;;;;;;;;;;;;3.78;100.00;101575.00;5076959;28;20376;-75
2022/03/18 06:56:46;;;;;;;;;;;;;;;4.16;100.00;101573.38;5070333;28;19932;-77
2022/03/18 06:59:14;;;;;;;;;;;;;;;4.37;100.00;101571.63;5072753;28;19962;-77
2022/03/18 07:01:41;;;;;;;;;;;;;;;4.06;100.00;101570.09;5072799;28;19930;-77
2022/03/18 07:04:08;;;;;;;;;;;;;;;4.23;100.00;101592.25;5073513;28;20371;-77
2022/03/18 07:06:35;;;;;;;;;;;;;;;4.49;100.00;101591.22;5072770;28;19939;-77
2022/03/18 07:09:03;;;;;;;;;;;;;;;5.01;100.00;101595.66;5072882;28;19948;-78
2022/03/18 07:11:30;;;;;;;;;;;;;;;5.76;100.00;101592.28;5073250;28;19924;-77
2022/03/18 07:13:57;;;;;;;;;;;;;;;6.83;100.00;101582.47;5072578;28;19928;-77
2022/03/18 07:19:10;;;;;;;;;;;;;;;5.72;100.00;101582.19;5073345;28;20036;-76
2022/03/18 07:21:37;;;;;;;;;;;;;;;6.61;100.00;101582.78;5056579;28;19925;-77
2022/03/18 07:24:04;;;;;;;;;;;;;;;7.96;100.00;101573.50;5073173;28;20058;-77
2022/03/18 07:26:32;;;;;;;;;;;;;;;8.09;100.00;101564.00;5070920;28;19931;-76
2022/03/18 07:29:04;;;;;;;;;;;;;;;8.20;100.00;101560.41;5073741;28;19978;-76
2022/03/18 07:31:31;;;;;;;;;;;;;;;8.85;100.00;101568.50;5073970;28;19924;-76
2022/03/18 07:33:58;;;;;;;;;;;;;;;9.36;100.00;101572.38;5085573;28;19924;-77
2022/03/18 07:36:25;;;;;;;;;;;;;;;8.61;100.00;101571.31;5092751;28;19931;-76
2022/03/18 07:38:52;;;;;;;;;;;;;;;9.65;100.00;101577.59;5076978;28;19925;-76
2022/03/18 07:41:20;;;;;;;;;;;;;;;10.46;100.00;101568.53;5074761;28;19974;-76
2022/03/18 07:43:47;;;;;;;;;;;;;;;11.18;100.00;101562.19;5075894;28;19928;-76
2022/03/18 07:46:14;;;;;;;;;;;;;;;11.57;100.00;101560.97;5077285;28;19928;-77
2022/03/18 07:48:44;;;;;;;;;;;;;;;12.01;100.00;101567.84;5078352;28;19931;-76
2022/03/18 07:51:11;;;;;;;;;;;;;;;12.13;100.00;101562.03;5095119;28;19935;-76
2022/03/18 07:53:38;;;;;;;;;;;;;;;11.98;100.00;101568.59;5083976;28;20280;-76
2022/03/18 07:56:06;;;;;;;;;;;;;;;11.73;100.00;101566.50;5077812;28;19924;-76
2022/03/18 07:58:33;;;;;;;;;;;;;;;11.76;100.00;101571.38;5073735;28;19925;-76
2022/03/18 08:01:00;;;;;;;;;;;;;;;12.17;100.00;101567.72;5094327;28;20343;-76
2022/03/18 08:03:28;;;;;;;;;;;;;;;12.05;100.00;101562.31;5078354;28;19973;-76
2022/03/18 08:05:55;;;;;;;;;;;;;;;12.84;100.00;101566.78;5095932;28;20286;-77
2022/03/18 08:08:22;;;;;;;;;;;;;;;13.52;100.00;101569.31;5095834;28;20018;-77
2022/03/18 08:10:51;;;;;;;;;;;;;;;14.06;100.00;101566.66;5095672;28;19971;-77
2022/03/18 08:13:18;;;;;;;;;;;;;;;14.28;100.00;101568.53;5083507;28;19925;-77
2022/03/18 08:15:45;;;;;;;;;;;;;;;14.21;100.00;101571.22;5075798;28;20003;-78
2022/03/18 08:18:13;;;;;;;;;;;;;;;14.10;100.00;101567.53;5058095;28;20409;-77
2022/03/18 08:20:40;;;;;;;;;;;;;;;14.12;100.00;101567.94;5075322;28;19932;-77
2022/03/18 08:23:08;;;;;;;;;;;;;;;14.24;100.00;101576.09;5075365;28;19925;-77
2022/03/18 08:25:35;;;;;;;;;;;;;;;14.49;100.00;101575.09;5075064;28;20415;-79
2022/03/18 08:28:02;;;;;;;;;;;;;;;14.85;100.00;101581.81;5074841;28;19928;-78
2022/03/18 08:30:29;;;;;;;;;;;;;;;14.86;100.00;101577.78;5071520;28;19936;-78
2022/03/18 08:32:56;;;;;;;;;;;;;;;15.05;100.00;101588.78;5068095;28;19924;-77
2022/03/18 08:35:23;;;;;;;;;;;;;;;15.20;100.00;101587.66;5067963;28;19931;-77
2022/03/18 08:37:56;;;;;;;;;;;;;;;15.31;100.00;101584.88;5071626;28;19924;-77
2022/03/18 08:40:32;;;;;;;;;;;;;;;15.53;100.00;101573.31;5074407;28;19932;-77
2022/03/18 08:43:00;;;;;;;;;;;;;;;15.54;100.00;101579.78;5071466;28;19975;-77
2022/03/18 08:45:27;;;;;;;;;;;;;;;15.48;100.00;101576.53;5075101;28;19967;-76
2022/03/18 08:47:55;;;;;;;;;;;;;;;15.56;100.00;101577.34;5096064;27;19925;-77
2022/03/18 08:50:22;;;;;;;;;;;;;;;15.66;100.00;101588.66;5071634;28;19931;-77
2022/03/18 08:52:52;;;;;;;;;;;;;;;15.52;100.00;101577.34;5073805;28;20001;-76
2022/03/18 08:55:19;;;;;;;;;;;;;;;15.37;100.00;101591.75;5072289;28;20141;-77
2022/03/18 08:57:47;;;;;;;;;;;;;;;15.19;100.00;101600.09;5073508;28;19925;-78
2022/03/18 09:00:16;;;;;;;;;;;;;;;14.07;100.00;101602.03;5073446;28;19931;-77
2022/03/18 09:02:44;;;;;;;;;;;;;;;14.23;100.00;101611.03;5076397;28;19960;-78
2022/03/18 09:05:12;;;;;;;;;;;;;;;14.88;100.00;101608.34;5074048;28;19924;-78
2022/03/18 09:07:39;;;;;;;;;;;;;;;15.24;100.00;101611.00;5077366;28;19924;-78
2022/03/18 09:10:08;;;;;;;;;;;;;;;15.20;100.00;101617.81;5092163;28;19931;-77
2022/03/18 09:12:35;;;;;;;;;;;;;;;13.97;100.00;101617.59;5093508;28;19969;-78
2022/03/18 09:15:03;;;;;;;;;;;;;;;13.61;100.00;101631.63;5093390;28;19925;-78
2022/03/18 09:17:31;;;;;;;;;;;;;;;13.39;100.00;101633.34;5084026;28;20516;-78
2022/03/18 09:19:58;;;;;;;;;;;;;;;12.74;100.00;101631.97;5092459;28;19924;-78
2022/03/18 09:22:25;;;;;;;;;;;;;;;12.54;100.00;101642.47;5079442;28;19924;-77
2022/03/18 09:24:53;;;;;;;;;;;;;;;12.54;100.00;101641.66;5079015;28;20366;-77
2022/03/18 09:27:20;;;;;;;;;;;;;;;12.83;100.00;101643.72;5094204;28;20004;-77
2022/03/18 09:29:48;;;;;;;;;;;;;;;12.88;100.00;101651.81;5093041;28;19954;-77
2022/03/18 09:32:15;;;;;;;;;;;;;;;13.02;100.00;101645.66;5072646;28;19935;-77
2022/03/18 09:34:44;;;;;;;;;;;;;;;13.53;100.00;101639.16;5072939;28;20009;-77
2022/03/18 09:37:11;;;;;;;;;;;;;;;13.37;100.00;101643.34;5073691;28;19924;-77
2022/03/18 09:39:38;;;;;;;;;;;;;;;13.46;100.00;101655.09;5072360;28;20039;-77
2022/03/18 09:42:08;;;;;;;;;;;;;;;13.74;100.00;101645.03;5070074;28;19924;-78
2022/03/18 09:44:40;;;;;;;;;;;;;;;13.44;100.00;101657.47;5052373;28;19933;-77
2022/03/18 09:47:07;;;;;;;;;;;;;;;12.74;100.00;101662.81;5104341;27;20101;-77
2022/03/18 09:49:35;;;;;;;;;;;;;;;13.05;100.00;101662.56;5106299;28;19928;-77
2022/03/18 09:52:03;;;;;;;;;;;;;;;12.84;100.00;101662.19;5072365;28;19928;-78
2022/03/18 09:54:32;;;;;;;;;;;;;;;12.77;100.00;101666.88;5074035;28;20553;-77
2022/03/18 09:57:00;;;;;;;;;;;;;;;12.68;100.00;101667.13;5074529;28;19977;-77
2022/03/18 09:59:28;;;;;;;;;;;;;;;12.74;100.00;101668.44;5083167;28;19928;-77
2022/03/18 10:02:14;;;;;;;;;;;;;;;12.66;100.00;101678.72;5073379;28;19935;-77
2022/03/18 10:04:51;;;;;;;;;;;;;;;12.98;100.00;101672.84;5085955;28;19924;-77
2022/03/18 10:07:20;;;;;;;;;;;;;;;12.93;100.00;101687.19;5093476;28;20430;-77
2022/03/18 10:10:00;;;;;;;;;;;;;;;12.99;100.00;101680.06;5093880;28;20015;-77
2022/03/18 10:12:36;;;;;;;;;;;;;;;12.77;100.00;101685.34;5093212;28;19959;-78
2022/03/18 10:15:13;;;;;;;;;;;;;;;12.88;100.00;101690.28;5059769;28;19924;-77
2022/03/18 10:17:41;;;;;;;;;;;;;;;13.30;100.00;101691.00;5073100;28;19925;-77
2022/03/18 10:20:27;;;;;;;;;;;;;;;12.91;100.00;101698.78;5076020;28;20418;-78
2022/03/18 10:22:56;;;;;;;;;;;;;;;12.87;100.00;101691.50;5096162;28;19924;-77
2022/03/18 10:25:53;;;;;;;;;;;;;;;12.87;100.00;101695.13;5079393;28;19974;-77
2022/03/18 10:28:40;;;;;;;;;;;;;;;13.19;100.00;101690.81;5089396;28;19924;-77
2022/03/18 10:31:10;;;;;;;;;;;;;;;13.25;100.00;101694.94;5076326;28;19924;-77
2022/03/18 10:39:31;;;;;;;;;;;;;;;13.19;100.00;101682.41;5075925;28;19924;-77
2022/03/18 10:42:02;;;;;;;;;;;;;;;13.28;100.00;101691.38;5076137;28;20273;-77
2022/03/18 10:44:49;;;;;;;;;;;;;;;13.41;100.00;101692.75;5077333;28;20371;-77
2022/03/18 10:47:39;;;;;;;;;;;;;;;13.87;100.00;101693.38;5077317;28;19983;-77
2022/03/18 10:50:29;;;;;;;;;;;;;;;14.09;100.00;101689.59;5077042;28;19932;-77
2022/03/18 10:53:32;;;;;;;;;;;;;;;13.93;100.00;101691.84;5022425;28;19936;-77
2022/03/18 10:56:18;;;;;;;;;;;;;;;13.84;100.00;101694.13;5020971;28;19948;-77
2022/03/18 10:59:04;;;;;;;;;;;;;;;14.23;100.00;101690.63;5034727;28;20387;-77
2022/03/18 11:01:50;;;;;;;;;;;;;;;13.95;100.00;101684.63;5020418;28;20028;-77
2022/03/18 11:04:36;;;;;;;;;;;;;;;14.27;100.00;101691.44;5020326;28;19971;-77
2022/03/18 11:07:31;;;;;;;;;;;;;;;14.10;100.00;101685.63;5023212;28;19931;-77
2022/03/18 11:13:23;;;;;;;;;;;;;;;13.86;100.00;101694.53;5037111;28;19948;-77
2022/03/18 11:16:10;;;;;;;;;;;;;;;14.02;100.00;101675.47;5033873;28;19996;-77
2022/03/18 11:18:57;;;;;;;;;;;;;;;13.67;100.00;101689.09;5034110;28;19940;-78
2022/03/18 11:21:45;;;;;;;;;;;;;;;14.24;100.00;101691.41;5020166;28;19991;-77
2022/03/18 11:24:32;;;;;;;;;;;;;;;14.74;100.00;101682.25;5052874;28;19978;-78
2022/03/18 11:27:18;;;;;;;;;;;;;;;14.15;100.00;101693.69;5055895;28;19931;-78
2022/03/18 11:30:17;;;;;;;;;;;;;;;14.34;100.00;101690.72;5055671;28;19931;-77
2022/03/18 11:33:06;;;;;;;;;;;;;;;14.58;100.00;101683.69;5054292;28;19940;-78
2022/03/18 11:35:52;;;;;;;;;;;;;;;14.50;100.00;101682.84;5055198;28;20411;-78
2022/03/18 11:38:51;;;;;;;;;;;;;;;14.37;100.00;101684.31;5054436;28;19931;-78
2022/03/18 11:41:53;;;;;;;;;;;;;;;13.96;100.00;101688.25;5055540;28;19996;-77
2022/03/18 11:44:40;;;;;;;;;;;;;;;14.03;100.00;101685.50;5055315;28;19932;-77
2022/03/18 11:47:29;;;;;;;;;;;;;;;13.72;100.00;101685.97;5056037;28;20026;-78
2022/03/18 11:50:37;;;;;;;;;;;;;;;14.81;100.00;101684.31;5078646;28;19939;-78
2022/03/18 11:53:51;;;;;;;;;;;;;;;14.44;100.00;101684.38;5026565;28;20364;-78
2022/03/18 11:56:47;;;;;;;;;;;;;;;13.74;100.00;101691.97;5053572;28;19968;-78
2022/03/18 11:59:38;;;;;;;;;;;;;;;15.09;100.00;101687.34;5033693;28;19932;-78
2022/03/18 12:02:49;;;;;;;;;;;;;;;14.37;100.00;101685.13;5019668;28;19979;-77
2022/03/18 12:05:51;;;;;;;;;;;;;;;14.88;100.00;101685.19;5018961;28;19976;-78
2022/03/18 12:08:51;;;;;;;;;;;;;;;15.01;100.00;101686.47;5046938;28;19932;-78
2022/03/18 12:11:37;;;;;;;;;;;;;;;15.08;100.00;101680.09;5053489;28;20026;-77
2022/03/18 12:14:23;;;;;;;;;;;;;;;15.63;100.00;101674.00;5039114;28;19963;-79
2022/03/18 12:17:09;;;;;;;;;;;;;;;15.72;100.00;101684.94;5047791;28;19932;-78
2022/03/18 12:19:58;;;;;;;;;;;;;;;15.27;100.00;101672.19;5019403;28;19936;-79
2022/03/18 12:22:44;;;;;;;;;;;;;;;14.96;100.00;101675.59;5020938;28;20324;-78
2022/03/18 12:25:29;;;;;;;;;;;;;;;14.48;100.00;101677.59;5039069;28;20426;-78
2022/03/18 12:28:15;;;;;;;;;;;;;;;14.09;100.00;101678.34;5053054;28;20470;-78
2022/03/18 12:31:16;;;;;;;;;;;;;;;14.71;100.00;101670.97;5026603;28;19931;-78
2022/03/18 12:34:05;;;;;;;;;;;;;;;14.46;100.00;101679.19;5019064;28;20002;-78
2022/03/18 12:36:51;;;;;;;;;;;;;;;15.22;100.00;101664.09;5018551;28;20036;-78
2022/03/18 12:39:37;;;;;;;;;;;;;;;15.52;100.00;101667.53;5032661;28;19985;-78
2022/03/18 12:42:11;;;;;;;;;;;;;;;15.72;100.00;101666.00;5016289;28;19968;-77
2022/03/18 12:44:46;;;;;;;;;;;;;;;15.64;100.00;101655.91;5032794;28;19925;-78
2022/03/18 12:47:14;;;;;;;;;;;;;;;16.11;100.00;101649.22;5032548;28;20284;-77
2022/03/18 12:49:41;;;;;;;;;;;;;;;16.33;100.00;101644.44;4999676;28;20020;-77
2022/03/18 12:52:10;;;;;;;;;;;;;;;15.86;100.00;101643.50;5031997;28;19932;-78
2022/03/18 12:55:00;;;;;;;;;;;;;;;15.72;100.00;101649.06;5036252;28;19925;-78
2022/03/18 12:57:31;;;;;;;;;;;;;;;16.04;100.00;101646.34;5032266;28;20392;-78
2022/03/18 12:59:59;;;;;;;;;;;;;;;15.64;100.00;101650.28;5028940;28;20320;-78
2022/03/18 13:02:41;;;;;;;;;;;;;;;15.93;100.00;101649.16;5026765;28;19925;-78
2022/03/18 13:05:13;;;;;;;;;;;;;;;16.24;100.00;101648.44;5012449;28;19925;-77
2022/03/18 13:07:46;;;;;;;;;;;;;;;16.46;100.00;101640.03;5024409;28;20490;-77
2022/03/18 13:10:22;;;;;;;;;;;;;;;16.68;100.00;101635.97;5054402;28;19932;-77
2022/03/18 13:12:49;;;;;;;;;;;;;;;16.35;100.00;101650.44;5062998;28;19931;-78
2022/03/18 13:15:19;;;;;;;;;;;;;;;16.44;100.00;101637.59;5074105;28;19925;-77